sensor_id;sensor_type;location;lat;lon;timestamp;temperature;humidity
64918;HTU21D;52176;44.858;38.372;2023-02-26T00:00:46;12.94;40.39
64918;HTU21D;52176;44.858;38.372;2023-02-26T00:03:12;13.05;39.80
64918;HTU21D;52176;44.858;38.372;2023-02-26T00:05:38;13.09;40.42
64918;HTU21D;52176;44.858;38.372;2023-02-26T00:08:03;13.07;40.70
64918;HTU21D;52176;44.858;38.372;2023-02-26T00:10:30;13.03;40.73
64918;HTU21D;52176;44.858;38.372;2023-02-26T00:12:56;13.01;40.86
64918;HTU21D;52176;44.858;38.372;2023-02-26T00:15:22;12.99;40.74
64918;HTU21D;52176;44.858;38.372;2023-02-26T00:17:51;12.99;40.49
64918;HTU21D;52176;44.858;38.372;2023-02-26T00:20:18;13.01;40.64
64918;HTU21D;52176;44.858;38.372;2023-02-26T00:22:44;13.03;40.43
64918;HTU21D;52176;44.858;38.372;2023-02-26T00:25:10;13.05;40.80
64918;HTU21D;52176;44.858;38.372;2023-02-26T00:27:37;13.03;41.07
64918;HTU21D;52176;44.858;38.372;2023-02-26T00:30:04;12.97;41.19
64918;HTU21D;52176;44.858;38.372;2023-02-26T00:32:30;12.94;41.50
64918;HTU21D;52176;44.858;38.372;2023-02-26T00:34:56;12.90;41.53
64918;HTU21D;52176;44.858;38.372;2023-02-26T00:40:11;12.88;41.95
64918;HTU21D;52176;44.858;38.372;2023-02-26T00:42:39;12.84;41.97
64918;HTU21D;52176;44.858;38.372;2023-02-26T00:45:05;12.80;41.99
64918;HTU21D;52176;44.858;38.372;2023-02-26T00:47:48;12.84;42.29
64918;HTU21D;52176;44.858;38.372;2023-02-26T00:50:19;12.84;42.31
64918;HTU21D;52176;44.858;38.372;2023-02-26T00:55:26;12.82;42.36
64918;HTU21D;52176;44.858;38.372;2023-02-26T00:57:52;12.82;42.48
64918;HTU21D;52176;44.858;38.372;2023-02-26T01:00:18;12.79;42.44
64918;HTU21D;52176;44.858;38.372;2023-02-26T01:02:44;12.80;42.13
64918;HTU21D;52176;44.858;38.372;2023-02-26T01:05:11;12.86;42.03
64918;HTU21D;52176;44.858;38.372;2023-02-26T01:07:46;12.89;42.12
64918;HTU21D;52176;44.858;38.372;2023-02-26T01:10:15;12.90;42.24
64918;HTU21D;52176;44.858;38.372;2023-02-26T01:12:41;12.90;41.94
64918;HTU21D;52176;44.858;38.372;2023-02-26T01:15:07;12.93;41.97
64918;HTU21D;52176;44.858;38.372;2023-02-26T01:17:43;12.94;42.29
64918;HTU21D;52176;44.858;38.372;2023-02-26T01:20:18;12.92;42.23
64918;HTU21D;52176;44.858;38.372;2023-02-26T01:25:12;12.96;41.58
64918;HTU21D;52176;44.858;38.372;2023-02-26T01:27:38;13.05;41.83
64918;HTU21D;52176;44.858;38.372;2023-02-26T01:30:06;13.07;42.13
64918;HTU21D;52176;44.858;38.372;2023-02-26T01:35:28;13.03;42.14
64918;HTU21D;52176;44.858;38.372;2023-02-26T01:38:00;13.03;42.35
64918;HTU21D;52176;44.858;38.372;2023-02-26T01:43:18;12.95;42.42
64918;HTU21D;52176;44.858;38.372;2023-02-26T01:51:14;13.09;42.55
64918;HTU21D;52176;44.858;38.372;2023-02-26T01:53:39;13.11;42.33
64918;HTU21D;52176;44.858;38.372;2023-02-26T01:56:09;13.17;42.48
64918;HTU21D;52176;44.858;38.372;2023-02-26T01:58:36;13.20;42.67
64918;HTU21D;52176;44.858;38.372;2023-02-26T02:01:02;13.16;42.97
64918;HTU21D;52176;44.858;38.372;2023-02-26T02:03:29;13.14;43.00
64918;HTU21D;52176;44.858;38.372;2023-02-26T02:05:57;13.10;43.17
64918;HTU21D;52176;44.858;38.372;2023-02-26T02:08:24;13.08;43.36
64918;HTU21D;52176;44.858;38.372;2023-02-26T02:10:50;13.04;43.63
64918;HTU21D;52176;44.858;38.372;2023-02-26T02:16:11;12.91;44.10
64918;HTU21D;52176;44.858;38.372;2023-02-26T02:18:44;12.82;44.35
64918;HTU21D;52176;44.858;38.372;2023-02-26T02:21:30;12.76;44.39
64918;HTU21D;52176;44.858;38.372;2023-02-26T02:24:03;12.74;44.45
64918;HTU21D;52176;44.858;38.372;2023-02-26T02:39:32;12.78;44.51
64918;HTU21D;52176;44.858;38.372;2023-02-26T02:44:42;12.81;44.25
64918;HTU21D;52176;44.858;38.372;2023-02-26T02:47:11;12.84;44.37
64918;HTU21D;52176;44.858;38.372;2023-02-26T02:50:20;12.84;44.32
64918;HTU21D;52176;44.858;38.372;2023-02-26T02:55:01;12.84;44.40
64918;HTU21D;52176;44.858;38.372;2023-02-26T02:57:29;12.81;44.30
64918;HTU21D;52176;44.858;38.372;2023-02-26T02:59:59;12.81;44.38
64918;HTU21D;52176;44.858;38.372;2023-02-26T03:04:51;12.76;44.45
64918;HTU21D;52176;44.858;38.372;2023-02-26T03:07:17;12.79;44.04
64918;HTU21D;52176;44.858;38.372;2023-02-26T03:09:43;12.82;44.37
64918;HTU21D;52176;44.858;38.372;2023-02-26T03:12:10;12.81;44.51
64918;HTU21D;52176;44.858;38.372;2023-02-26T03:14:36;12.77;44.61
64918;HTU21D;52176;44.858;38.372;2023-02-26T03:20:17;12.73;44.70
64918;HTU21D;52176;44.858;38.372;2023-02-26T03:27:35;12.70;44.93
64918;HTU21D;52176;44.858;38.372;2023-02-26T03:32:45;12.73;45.02
64918;HTU21D;52176;44.858;38.372;2023-02-26T03:38:05;12.71;44.91
64918;HTU21D;52176;44.858;38.372;2023-02-26T03:40:42;12.72;45.03
64918;HTU21D;52176;44.858;38.372;2023-02-26T03:43:17;12.72;45.18
64918;HTU21D;52176;44.858;38.372;2023-02-26T03:45:44;12.67;45.10
64918;HTU21D;52176;44.858;38.372;2023-02-26T03:48:12;12.66;45.25
64918;HTU21D;52176;44.858;38.372;2023-02-26T03:53:35;12.67;45.10
64918;HTU21D;52176;44.858;38.372;2023-02-26T03:56:14;12.72;45.05
64918;HTU21D;52176;44.858;38.372;2023-02-26T03:59:09;12.73;45.16
64918;HTU21D;52176;44.858;38.372;2023-02-26T04:01:47;12.73;45.29
64918;HTU21D;52176;44.858;38.372;2023-02-26T04:06:47;12.66;45.54
64918;HTU21D;52176;44.858;38.372;2023-02-26T04:09:14;12.63;45.74
64918;HTU21D;52176;44.858;38.372;2023-02-26T04:11:40;12.61;45.77
64918;HTU21D;52176;44.858;38.372;2023-02-26T04:14:06;12.63;45.79
64918;HTU21D;52176;44.858;38.372;2023-02-26T04:16:37;12.64;45.84
64918;HTU21D;52176;44.858;38.372;2023-02-26T04:19:03;12.63;45.72
64918;HTU21D;52176;44.858;38.372;2023-02-26T04:21:29;12.67;45.67
64918;HTU21D;52176;44.858;38.372;2023-02-26T04:23:55;12.72;45.47
64918;HTU21D;52176;44.858;38.372;2023-02-26T04:26:21;12.76;45.72
64918;HTU21D;52176;44.858;38.372;2023-02-26T04:28:47;12.79;45.26
64918;HTU21D;52176;44.858;38.372;2023-02-26T04:31:13;12.88;45.24
64918;HTU21D;52176;44.858;38.372;2023-02-26T04:33:40;12.93;45.09
64918;HTU21D;52176;44.858;38.372;2023-02-26T04:36:06;13.00;44.99
64918;HTU21D;52176;44.858;38.372;2023-02-26T04:38:32;13.05;44.96
64918;HTU21D;52176;44.858;38.372;2023-02-26T04:40:58;13.09;45.17
64918;HTU21D;52176;44.858;38.372;2023-02-26T04:43:24;13.11;45.23
64918;HTU21D;52176;44.858;38.372;2023-02-26T04:46:04;13.16;45.07
64918;HTU21D;52176;44.858;38.372;2023-02-26T04:48:32;13.20;45.04
64918;HTU21D;52176;44.858;38.372;2023-02-26T04:50:58;13.24;45.03
64918;HTU21D;52176;44.858;38.372;2023-02-26T04:53:24;13.27;45.03
64918;HTU21D;52176;44.858;38.372;2023-02-26T04:55:50;13.32;45.05
64918;HTU21D;52176;44.858;38.372;2023-02-26T04:58:16;13.35;45.03
64918;HTU21D;52176;44.858;38.372;2023-02-26T05:00:42;13.38;45.09
64918;HTU21D;52176;44.858;38.372;2023-02-26T05:03:07;13.41;44.93
64918;HTU21D;52176;44.858;38.372;2023-02-26T05:05:34;13.47;44.79
64918;HTU21D;52176;44.858;38.372;2023-02-26T05:08:00;13.53;44.64
64918;HTU21D;52176;44.858;38.372;2023-02-26T05:10:26;13.58;44.70
64918;HTU21D;52176;44.858;38.372;2023-02-26T05:12:52;13.62;44.70
64918;HTU21D;52176;44.858;38.372;2023-02-26T05:15:18;13.66;44.06
64918;HTU21D;52176;44.858;38.372;2023-02-26T05:17:44;13.71;44.49
64918;HTU21D;52176;44.858;38.372;2023-02-26T05:20:10;13.75;44.51
64918;HTU21D;52176;44.858;38.372;2023-02-26T05:22:37;13.78;44.35
64918;HTU21D;52176;44.858;38.372;2023-02-26T05:25:03;13.80;44.22
64918;HTU21D;52176;44.858;38.372;2023-02-26T05:27:29;13.85;44.26
64918;HTU21D;52176;44.858;38.372;2023-02-26T05:29:55;13.89;44.19
64918;HTU21D;52176;44.858;38.372;2023-02-26T05:32:21;13.92;44.05
64918;HTU21D;52176;44.858;38.372;2023-02-26T05:34:47;13.97;44.25
64918;HTU21D;52176;44.858;38.372;2023-02-26T05:37:12;13.98;44.19
64918;HTU21D;52176;44.858;38.372;2023-02-26T05:39:38;13.99;44.36
64918;HTU21D;52176;44.858;38.372;2023-02-26T05:42:06;14.01;44.40
64918;HTU21D;52176;44.858;38.372;2023-02-26T05:44:32;14.04;43.96
64918;HTU21D;52176;44.858;38.372;2023-02-26T05:46:58;14.09;44.20
64918;HTU21D;52176;44.858;38.372;2023-02-26T05:49:23;14.13;43.93
64918;HTU21D;52176;44.858;38.372;2023-02-26T05:51:49;14.19;43.69
64918;HTU21D;52176;44.858;38.372;2023-02-26T05:54:15;14.23;43.82
64918;HTU21D;52176;44.858;38.372;2023-02-26T05:56:41;14.28;43.56
64918;HTU21D;52176;44.858;38.372;2023-02-26T05:59:07;14.35;43.88
64918;HTU21D;52176;44.858;38.372;2023-02-26T06:01:32;14.41;43.73
64918;HTU21D;52176;44.858;38.372;2023-02-26T06:03:58;14.49;43.40
64918;HTU21D;52176;44.858;38.372;2023-02-26T06:06:24;14.58;43.07
64918;HTU21D;52176;44.858;38.372;2023-02-26T06:08:51;14.65;43.22
64918;HTU21D;52176;44.858;38.372;2023-02-26T06:11:17;14.69;43.31
64918;HTU21D;52176;44.858;38.372;2023-02-26T06:13:42;14.72;43.18
64918;HTU21D;52176;44.858;38.372;2023-02-26T06:16:08;14.79;43.07
64918;HTU21D;52176;44.858;38.372;2023-02-26T06:18:34;14.85;42.92
64918;HTU21D;52176;44.858;38.372;2023-02-26T06:21:00;14.88;43.14
64918;HTU21D;52176;44.858;38.372;2023-02-26T06:23:26;14.92;43.10
64918;HTU21D;52176;44.858;38.372;2023-02-26T06:25:52;14.95;42.92
64918;HTU21D;52176;44.858;38.372;2023-02-26T06:28:18;14.97;42.93
64918;HTU21D;52176;44.858;38.372;2023-02-26T06:30:44;15.00;42.68
64918;HTU21D;52176;44.858;38.372;2023-02-26T06:33:10;15.04;42.57
64918;HTU21D;52176;44.858;38.372;2023-02-26T06:35:36;15.10;42.47
64918;HTU21D;52176;44.858;38.372;2023-02-26T06:38:02;15.13;42.13
64918;HTU21D;52176;44.858;38.372;2023-02-26T06:40:28;15.18;42.46
64918;HTU21D;52176;44.858;38.372;2023-02-26T06:42:55;15.21;42.27
64918;HTU21D;52176;44.858;38.372;2023-02-26T06:45:21;15.27;42.53
64918;HTU21D;52176;44.858;38.372;2023-02-26T06:47:47;15.29;42.21
64918;HTU21D;52176;44.858;38.372;2023-02-26T06:50:13;15.34;42.54
64918;HTU21D;52176;44.858;38.372;2023-02-26T06:52:39;15.39;42.67
64918;HTU21D;52176;44.858;38.372;2023-02-26T06:55:05;15.44;42.80
64918;HTU21D;52176;44.858;38.372;2023-02-26T06:57:31;15.47;42.48
64918;HTU21D;52176;44.858;38.372;2023-02-26T06:59:57;15.49;42.52
64918;HTU21D;52176;44.858;38.372;2023-02-26T07:02:23;15.54;42.45
64918;HTU21D;52176;44.858;38.372;2023-02-26T07:04:49;15.56;42.40
64918;HTU21D;52176;44.858;38.372;2023-02-26T07:07:15;15.56;41.80
64918;HTU21D;52176;44.858;38.372;2023-02-26T07:09:41;15.55;41.98
64918;HTU21D;52176;44.858;38.372;2023-02-26T07:12:07;15.55;42.03
64918;HTU21D;52176;44.858;38.372;2023-02-26T07:14:33;15.55;42.25
64918;HTU21D;52176;44.858;38.372;2023-02-26T07:17:00;15.56;41.95
64918;HTU21D;52176;44.858;38.372;2023-02-26T07:19:26;15.58;42.13
64918;HTU21D;52176;44.858;38.372;2023-02-26T07:21:52;15.61;41.97
64918;HTU21D;52176;44.858;38.372;2023-02-26T07:24:20;15.63;41.72
64918;HTU21D;52176;44.858;38.372;2023-02-26T07:26:46;15.66;41.90
64918;HTU21D;52176;44.858;38.372;2023-02-26T07:29:12;15.70;41.75
64918;HTU21D;52176;44.858;38.372;2023-02-26T07:31:38;15.72;41.62
64918;HTU21D;52176;44.858;38.372;2023-02-26T07:34:05;15.75;41.77
64918;HTU21D;52176;44.858;38.372;2023-02-26T07:36:31;15.80;41.62
64918;HTU21D;52176;44.858;38.372;2023-02-26T07:38:58;15.85;41.47
64918;HTU21D;52176;44.858;38.372;2023-02-26T07:41:23;15.91;41.31
64918;HTU21D;52176;44.858;38.372;2023-02-26T07:43:49;15.98;41.24
64918;HTU21D;52176;44.858;38.372;2023-02-26T07:46:16;16.03;40.97
64918;HTU21D;52176;44.858;38.372;2023-02-26T07:48:42;16.05;40.66
64918;HTU21D;52176;44.858;38.372;2023-02-26T07:51:08;16.11;41.03
64918;HTU21D;52176;44.858;38.372;2023-02-26T07:53:36;16.15;41.01
64918;HTU21D;52176;44.858;38.372;2023-02-26T07:56:02;16.17;41.11
64918;HTU21D;52176;44.858;38.372;2023-02-26T07:58:28;16.19;41.17
64918;HTU21D;52176;44.858;38.372;2023-02-26T08:00:54;16.21;41.26
64918;HTU21D;52176;44.858;38.372;2023-02-26T08:03:20;16.25;41.31
64918;HTU21D;52176;44.858;38.372;2023-02-26T08:05:46;16.31;41.41
64918;HTU21D;52176;44.858;38.372;2023-02-26T08:08:12;16.39;41.37
64918;HTU21D;52176;44.858;38.372;2023-02-26T08:10:38;16.44;40.82
64918;HTU21D;52176;44.858;38.372;2023-02-26T08:13:06;16.50;41.17
64918;HTU21D;52176;44.858;38.372;2023-02-26T08:15:32;16.58;41.04
64918;HTU21D;52176;44.858;38.372;2023-02-26T08:17:59;16.62;41.09
64918;HTU21D;52176;44.858;38.372;2023-02-26T08:20:25;16.70;40.91
64918;HTU21D;52176;44.858;38.372;2023-02-26T08:22:51;16.75;40.90
64918;HTU21D;52176;44.858;38.372;2023-02-26T08:25:17;16.81;41.06
64918;HTU21D;52176;44.858;38.372;2023-02-26T08:27:43;16.89;40.75
64918;HTU21D;52176;44.858;38.372;2023-02-26T08:30:10;16.93;40.62
64918;HTU21D;52176;44.858;38.372;2023-02-26T08:32:36;16.98;40.83
64918;HTU21D;52176;44.858;38.372;2023-02-26T08:35:05;17.01;40.66
64918;HTU21D;52176;44.858;38.372;2023-02-26T08:37:31;17.05;40.66
64918;HTU21D;52176;44.858;38.372;2023-02-26T08:39:57;17.07;40.51
64918;HTU21D;52176;44.858;38.372;2023-02-26T08:42:23;17.09;40.62
64918;HTU21D;52176;44.858;38.372;2023-02-26T08:44:49;17.11;40.28
64918;HTU21D;52176;44.858;38.372;2023-02-26T08:47:15;17.13;40.52
64918;HTU21D;52176;44.858;38.372;2023-02-26T08:49:41;17.15;40.55
64918;HTU21D;52176;44.858;38.372;2023-02-26T08:52:07;17.19;40.55
64918;HTU21D;52176;44.858;38.372;2023-02-26T08:54:33;17.24;40.69
64918;HTU21D;52176;44.858;38.372;2023-02-26T08:56:59;17.30;40.51
64918;HTU21D;52176;44.858;38.372;2023-02-26T08:59:25;17.29;40.10
64918;HTU21D;52176;44.858;38.372;2023-02-26T09:01:51;17.29;40.30
64918;HTU21D;52176;44.858;38.372;2023-02-26T09:04:17;17.32;40.55
64918;HTU21D;52176;44.858;38.372;2023-02-26T09:06:43;17.34;40.69
64918;HTU21D;52176;44.858;38.372;2023-02-26T09:09:10;17.38;40.54
64918;HTU21D;52176;44.858;38.372;2023-02-26T09:11:36;17.38;40.38
64918;HTU21D;52176;44.858;38.372;2023-02-26T09:14:03;17.43;40.41
64918;HTU21D;52176;44.858;38.372;2023-02-26T09:16:30;17.43;40.17
64918;HTU21D;52176;44.858;38.372;2023-02-26T09:18:57;17.48;39.91
64918;HTU21D;52176;44.858;38.372;2023-02-26T09:21:23;17.50;40.08
64918;HTU21D;52176;44.858;38.372;2023-02-26T09:23:49;17.52;40.16
64918;HTU21D;52176;44.858;38.372;2023-02-26T09:26:15;17.58;39.97
64918;HTU21D;52176;44.858;38.372;2023-02-26T09:28:41;17.62;40.20
64918;HTU21D;52176;44.858;38.372;2023-02-26T09:31:07;17.64;40.02
64918;HTU21D;52176;44.858;38.372;2023-02-26T09:33:33;17.66;40.17
64918;HTU21D;52176;44.858;38.372;2023-02-26T09:35:59;17.70;40.39
64918;HTU21D;52176;44.858;38.372;2023-02-26T09:38:26;17.70;40.11
64918;HTU21D;52176;44.858;38.372;2023-02-26T09:40:59;17.77;40.00
64918;HTU21D;52176;44.858;38.372;2023-02-26T09:48:46;18.18;40.26
64918;HTU21D;52176;44.858;38.372;2023-02-26T09:51:14;18.46;40.21
64918;HTU21D;52176;44.858;38.372;2023-02-26T09:53:42;18.72;39.77
64918;HTU21D;52176;44.858;38.372;2023-02-26T09:56:27;18.83;39.37
64918;HTU21D;52176;44.858;38.372;2023-02-26T09:58:57;18.87;39.47
64918;HTU21D;52176;44.858;38.372;2023-02-26T10:06:31;19.03;39.25
64918;HTU21D;52176;44.858;38.372;2023-02-26T10:09:29;18.98;38.64
64918;HTU21D;52176;44.858;38.372;2023-02-26T10:12:03;18.84;39.31
64918;HTU21D;52176;44.858;38.372;2023-02-26T10:14:42;18.73;39.63
64918;HTU21D;52176;44.858;38.372;2023-02-26T10:19:51;18.58;39.91
64918;HTU21D;52176;44.858;38.372;2023-02-26T10:22:33;18.49;39.85
64918;HTU21D;52176;44.858;38.372;2023-02-26T10:25:20;18.37;39.58
64918;HTU21D;52176;44.858;38.372;2023-02-26T10:28:00;18.27;40.07
64918;HTU21D;52176;44.858;38.372;2023-02-26T10:30:41;18.21;40.07
64918;HTU21D;52176;44.858;38.372;2023-02-26T10:35:53;18.20;40.60
64918;HTU21D;52176;44.858;38.372;2023-02-26T10:38:25;18.22;40.52
64918;HTU21D;52176;44.858;38.372;2023-02-26T10:41:07;18.25;40.81
64918;HTU21D;52176;44.858;38.372;2023-02-26T10:51:45;18.54;40.42
64918;HTU21D;52176;44.858;38.372;2023-02-26T10:54:23;18.58;40.28
64918;HTU21D;52176;44.858;38.372;2023-02-26T10:56:52;18.57;40.39
64918;HTU21D;52176;44.858;38.372;2023-02-26T10:59:18;18.56;40.81
64918;HTU21D;52176;44.858;38.372;2023-02-26T11:01:44;18.57;40.59
64918;HTU21D;52176;44.858;38.372;2023-02-26T11:04:17;18.55;40.65
64918;HTU21D;52176;44.858;38.372;2023-02-26T11:06:55;18.54;40.76
64918;HTU21D;52176;44.858;38.372;2023-02-26T11:09:32;18.50;40.70
64918;HTU21D;52176;44.858;38.372;2023-02-26T11:12:12;18.44;41.13
64918;HTU21D;52176;44.858;38.372;2023-02-26T11:14:41;18.43;41.16
64918;HTU21D;52176;44.858;38.372;2023-02-26T11:17:23;18.35;40.95
64918;HTU21D;52176;44.858;38.372;2023-02-26T11:20:01;18.27;41.20
64918;HTU21D;52176;44.858;38.372;2023-02-26T11:22:32;18.17;41.35
64918;HTU21D;52176;44.858;38.372;2023-02-26T11:24:58;18.10;41.49
64918;HTU21D;52176;44.858;38.372;2023-02-26T11:27:36;18.06;41.44
64918;HTU21D;52176;44.858;38.372;2023-02-26T11:30:09;18.04;41.57
64918;HTU21D;52176;44.858;38.372;2023-02-26T11:32:36;18.03;41.50
64918;HTU21D;52176;44.858;38.372;2023-02-26T11:35:07;17.96;41.55
64918;HTU21D;52176;44.858;38.372;2023-02-26T11:37:37;17.91;41.71
64918;HTU21D;52176;44.858;38.372;2023-02-26T11:40:20;17.90;41.92
64918;HTU21D;52176;44.858;38.372;2023-02-26T11:42:50;17.87;42.16
64918;HTU21D;52176;44.858;38.372;2023-02-26T11:45:19;17.82;42.15
64918;HTU21D;52176;44.858;38.372;2023-02-26T11:47:47;17.78;42.33
64918;HTU21D;52176;44.858;38.372;2023-02-26T11:50:20;17.75;42.33
64918;HTU21D;52176;44.858;38.372;2023-02-26T11:53:41;17.72;42.42
64918;HTU21D;52176;44.858;38.372;2023-02-26T11:55:45;17.68;42.61
64918;HTU21D;52176;44.858;38.372;2023-02-26T11:58:23;17.68;42.61
64918;HTU21D;52176;44.858;38.372;2023-02-26T12:00:52;17.66;42.70
64918;HTU21D;52176;44.858;38.372;2023-02-26T12:03:26;17.65;42.92
64918;HTU21D;52176;44.858;38.372;2023-02-26T12:05:53;17.65;42.88
64918;HTU21D;52176;44.858;38.372;2023-02-26T12:08:27;17.64;43.06
64918;HTU21D;52176;44.858;38.372;2023-02-26T12:19:35;17.52;43.39
64918;HTU21D;52176;44.858;38.372;2023-02-26T12:22:08;17.47;43.69
64918;HTU21D;52176;44.858;38.372;2023-02-26T12:24:58;17.43;43.85
64918;HTU21D;52176;44.858;38.372;2023-02-26T12:27:58;17.37;43.79
64918;HTU21D;52176;44.858;38.372;2023-02-26T12:31:16;17.32;43.83
64918;HTU21D;52176;44.858;38.372;2023-02-26T12:39:23;17.22;44.40
64918;HTU21D;52176;44.858;38.372;2023-02-26T12:49:01;17.32;44.38
64918;HTU21D;52176;44.858;38.372;2023-02-26T12:53:55;17.53;44.23
64918;HTU21D;52176;44.858;38.372;2023-02-26T12:59:32;17.69;43.77
64918;HTU21D;52176;44.858;38.372;2023-02-26T13:10:29;17.41;44.02
64918;HTU21D;52176;44.858;38.372;2023-02-26T13:21:13;16.96;44.86
64918;HTU21D;52176;44.858;38.372;2023-02-26T13:26:16;16.81;45.02
64918;HTU21D;52176;44.858;38.372;2023-02-26T13:28:52;16.74;45.21
64918;HTU21D;52176;44.858;38.372;2023-02-26T13:31:30;16.69;45.43
64918;HTU21D;52176;44.858;38.372;2023-02-26T13:34:02;16.66;45.54
64918;HTU21D;52176;44.858;38.372;2023-02-26T13:36:29;16.64;45.66
64918;HTU21D;52176;44.858;38.372;2023-02-26T13:42:00;16.64;45.73
64918;HTU21D;52176;44.858;38.372;2023-02-26T13:52:48;16.48;46.15
64918;HTU21D;52176;44.858;38.372;2023-02-26T13:55:36;16.44;46.36
64918;HTU21D;52176;44.858;38.372;2023-02-26T14:06:43;16.08;46.89
64918;HTU21D;52176;44.858;38.372;2023-02-26T14:14:39;15.74;47.32
64918;HTU21D;52176;44.858;38.372;2023-02-26T14:19:44;15.58;47.63
64918;HTU21D;52176;44.858;38.372;2023-02-26T14:25:12;15.41;47.92
64918;HTU21D;52176;44.858;38.372;2023-02-26T14:27:42;15.30;48.12
64918;HTU21D;52176;44.858;38.372;2023-02-26T14:35:30;15.06;48.49
64918;HTU21D;52176;44.858;38.372;2023-02-26T14:38:19;14.96;48.65
64918;HTU21D;52176;44.858;38.372;2023-02-26T14:43:36;14.78;48.95
64918;HTU21D;52176;44.858;38.372;2023-02-26T14:46:03;14.72;49.03
64918;HTU21D;52176;44.858;38.372;2023-02-26T14:48:31;14.67;49.15
64918;HTU21D;52176;44.858;38.372;2023-02-26T15:09:02;14.27;49.76
64918;HTU21D;52176;44.858;38.372;2023-02-26T15:14:31;14.15;49.99
64918;HTU21D;52176;44.858;38.372;2023-02-26T15:17:07;14.06;50.03
64918;HTU21D;52176;44.858;38.372;2023-02-26T15:22:36;13.98;50.17
64918;HTU21D;52176;44.858;38.372;2023-02-26T15:24:57;13.96;50.15
64918;HTU21D;52176;44.858;38.372;2023-02-26T15:27:25;13.90;50.24
64918;HTU21D;52176;44.858;38.372;2023-02-26T15:29:54;13.86;50.36
64918;HTU21D;52176;44.858;38.372;2023-02-26T15:32:25;13.82;50.37
64918;HTU21D;52176;44.858;38.372;2023-02-26T15:34:58;13.78;50.48
64918;HTU21D;52176;44.858;38.372;2023-02-26T15:37:25;13.75;50.52
64918;HTU21D;52176;44.858;38.372;2023-02-26T15:39:54;13.73;50.53
64918;HTU21D;52176;44.858;38.372;2023-02-26T15:42:21;13.71;50.55
64918;HTU21D;52176;44.858;38.372;2023-02-26T15:44:51;13.68;50.56
64918;HTU21D;52176;44.858;38.372;2023-02-26T15:47:18;13.66;50.57
64918;HTU21D;52176;44.858;38.372;2023-02-26T15:49:45;13.63;50.59
64918;HTU21D;52176;44.858;38.372;2023-02-26T15:52:15;13.59;50.66
64918;HTU21D;52176;44.858;38.372;2023-02-26T15:54:43;13.54;50.73
64918;HTU21D;52176;44.858;38.372;2023-02-26T15:57:10;13.51;50.86
64918;HTU21D;52176;44.858;38.372;2023-02-26T15:59:41;13.48;50.89
64918;HTU21D;52176;44.858;38.372;2023-02-26T16:02:10;13.48;50.85
64918;HTU21D;52176;44.858;38.372;2023-02-26T16:04:37;13.49;50.80
64918;HTU21D;52176;44.858;38.372;2023-02-26T16:07:03;13.49;50.80
64918;HTU21D;52176;44.858;38.372;2023-02-26T16:09:30;13.48;50.79
64918;HTU21D;52176;44.858;38.372;2023-02-26T16:12:06;13.45;50.84
64918;HTU21D;52176;44.858;38.372;2023-02-26T16:14:37;13.44;50.88
64918;HTU21D;52176;44.858;38.372;2023-02-26T16:17:05;13.39;50.86
64918;HTU21D;52176;44.858;38.372;2023-02-26T16:19:40;13.33;50.96
64918;HTU21D;52176;44.858;38.372;2023-02-26T16:24:56;13.08;51.23
64918;HTU21D;52176;44.858;38.372;2023-02-26T16:27:28;13.05;51.32
64918;HTU21D;52176;44.858;38.372;2023-02-26T16:29:56;13.02;51.33
64918;HTU21D;52176;44.858;38.372;2023-02-26T16:32:24;12.99;51.39
64918;HTU21D;52176;44.858;38.372;2023-02-26T16:34:53;12.93;51.42
64918;HTU21D;52176;44.858;38.372;2023-02-26T16:37:32;12.91;51.40
64918;HTU21D;52176;44.858;38.372;2023-02-26T16:40:18;12.88;51.41
64918;HTU21D;52176;44.858;38.372;2023-02-26T16:42:51;12.88;51.41
64918;HTU21D;52176;44.858;38.372;2023-02-26T16:48:08;12.82;51.40
64918;HTU21D;52176;44.858;38.372;2023-02-26T16:50:36;12.79;51.38
64918;HTU21D;52176;44.858;38.372;2023-02-26T16:53:18;12.77;51.41
64918;HTU21D;52176;44.858;38.372;2023-02-26T16:55:52;12.76;51.37
64918;HTU21D;52176;44.858;38.372;2023-02-26T16:58:19;12.69;51.41
64918;HTU21D;52176;44.858;38.372;2023-02-26T17:00:51;12.70;51.40
64918;HTU21D;52176;44.858;38.372;2023-02-26T17:03:23;12.67;51.36
64918;HTU21D;52176;44.858;38.372;2023-02-26T17:06:01;12.63;51.40
64918;HTU21D;52176;44.858;38.372;2023-02-26T17:08:40;12.58;51.45
64918;HTU21D;52176;44.858;38.372;2023-02-26T17:11:08;12.52;51.50
64918;HTU21D;52176;44.858;38.372;2023-02-26T17:13:41;12.43;51.61
64918;HTU21D;52176;44.858;38.372;2023-02-26T17:16:10;12.32;51.79
64918;HTU21D;52176;44.858;38.372;2023-02-26T17:18:37;12.20;51.85
64918;HTU21D;52176;44.858;38.372;2023-02-26T17:21:04;12.11;52.01
64918;HTU21D;52176;44.858;38.372;2023-02-26T17:23:32;12.11;52.09
64918;HTU21D;52176;44.858;38.372;2023-02-26T17:26:01;12.13;52.02
64918;HTU21D;52176;44.858;38.372;2023-02-26T17:28:34;12.14;51.92
64918;HTU21D;52176;44.858;38.372;2023-02-26T17:31:02;12.14;51.89
64918;HTU21D;52176;44.858;38.372;2023-02-26T17:33:29;12.12;51.91
64918;HTU21D;52176;44.858;38.372;2023-02-26T17:35:59;12.06;51.95
64918;HTU21D;52176;44.858;38.372;2023-02-26T17:38:26;12.01;52.06
64918;HTU21D;52176;44.858;38.372;2023-02-26T17:40:53;11.96;52.13
64918;HTU21D;52176;44.858;38.372;2023-02-26T17:43:21;11.92;52.20
64918;HTU21D;52176;44.858;38.372;2023-02-26T17:45:47;11.89;52.25
64918;HTU21D;52176;44.858;38.372;2023-02-26T17:48:15;11.91;52.24
64918;HTU21D;52176;44.858;38.372;2023-02-26T17:50:54;11.98;52.17
64918;HTU21D;52176;44.858;38.372;2023-02-26T17:53:22;12.03;52.08
64918;HTU21D;52176;44.858;38.372;2023-02-26T17:55:49;12.05;52.01
64918;HTU21D;52176;44.858;38.372;2023-02-26T17:58:21;12.07;52.00
64918;HTU21D;52176;44.858;38.372;2023-02-26T18:00:49;12.08;51.94
64918;HTU21D;52176;44.858;38.372;2023-02-26T18:03:18;12.07;51.92
64918;HTU21D;52176;44.858;38.372;2023-02-26T18:05:46;12.07;51.89
64918;HTU21D;52176;44.858;38.372;2023-02-26T18:08:23;12.08;51.80
64918;HTU21D;52176;44.858;38.372;2023-02-26T18:10:51;12.08;51.81
64918;HTU21D;52176;44.858;38.372;2023-02-26T18:13:17;12.03;51.85
64918;HTU21D;52176;44.858;38.372;2023-02-26T18:15:44;11.99;51.89
64918;HTU21D;52176;44.858;38.372;2023-02-26T18:18:13;11.88;52.01
64918;HTU21D;52176;44.858;38.372;2023-02-26T18:20:40;11.77;52.12
64918;HTU21D;52176;44.858;38.372;2023-02-26T18:23:07;11.68;52.21
64918;HTU21D;52176;44.858;38.372;2023-02-26T18:25:34;11.58;52.37
64918;HTU21D;52176;44.858;38.372;2023-02-26T18:28:04;11.47;52.53
64918;HTU21D;52176;44.858;38.372;2023-02-26T18:30:32;11.38;52.64
64918;HTU21D;52176;44.858;38.372;2023-02-26T18:32:58;11.29;52.67
64918;HTU21D;52176;44.858;38.372;2023-02-26T18:35:26;11.20;52.78